Airfield :
LOGIN :

Register | Disclaimer

   EN    FR    IT 

 










Legend :    VFR   Marginal VFR   IFR   Intensive IFR   Very Intensive IFR
Visi :
Ceiling :
>= 8 km
>= 3000ft
5 to 8 km
1000 to 3000 ft
1500m to 5 km
500 to 1000 ft
800 to 1500m
200 to 500 ft
< 800m
< 200 ft
Symbols :   Thunderstorms  Fog  Heavy snow  Heavy precipitations  Wind > 20 kt
SIGMETs :     Misc.  Thunderstorms  Icing  Turbulence  Mountain Waves  Volcanic Ashes







- Airport Elevation : 313 ft
- IATA code : LEH
- Download approach charts


LFOH - Le Havre Octeville

CURRENT METAR :
  • 201430Z AUTO 36004KT 330V060 8000 -RA OVC004 17/16 Q1014 BECMG BKN030

EXPIRED METARs :
  • 201400Z AUTO 33004KT 310V030 6000 -RA OVC004 17/16 Q1014 TEMPO 3000 SHRA BECMG BKN030 BKN060TCU
  • 201330Z AUTO 31005KT 6000 -RA BKN004/// OVC014/// ///TCU 17/16 Q1014 TEMPO 3000 SHRA BKN013 BKN060CB
  • 201300Z AUTO 31006KT 270V330 5000 -RA BR OVC003/// ///TCU 17/16 Q1015 TEMPO SHRA BKN013 BKN060CB
  • 201230Z AUTO 29007KT 4100 RA BR OVC003/// ///TCU 17/16 Q1015 TEMPO BKN013 BKN060CB
  • 201200Z AUTO 28007KT 3100 -RA BR OVC002/// ///TCU 17/16 Q1015 TEMPO SHRA BKN003 BKN060CB

TAF AMD TAF LFOH
Valid from the 20 at 14:00 until the 21 at 12:00 UTC


201408Z 2014/2112 30007KT 5000 -RA OVC004
BECMG 2015/2018 9999 NSW BKN030
TEMPO 2023/2108 -RA BKN008
ATIS : +33 2 35 54 64 93
No reported NOTAMs for that airfield.
1 SIGMET reported for the Paris FIR (LFFF) :
 
Embedded thunderstorms
LFFF SIGMET 2 VALID 201405/201600 LFPW
LFFF PARIS FIR/UIR EMBD TS OBS WI N4815 E00130 - N4945 E00215 - N4845 E00300 - N4815 E00130 TOP FL380 MOV NNE 15KT NC=



MET'MAP, your aeronautical weather chart ! - Copyright ORBIFLY December 2007 - Disclaimer

ORBIFLY MET'MAP TEAM :

Programming & Development : Alexandra Zaïnal
Concept & Development : Baudouin d'Aumeries
Co-Development & Prog : Marc-Olivier Méhu
Technical & hardware support : Manuel Goepfert

Contact : metmap@orbifly.com




SOURCES & CREDITS :

   NOAA